createdAt,value
2017-12-14T00:00:22.237Z,98713.73
2017-12-14T00:02:49.810Z,98707.52
2017-12-14T00:05:17.388Z,98694.10
2017-12-14T00:07:44.964Z,98691.73
2017-12-14T00:10:12.536Z,98686.98
2017-12-14T00:12:40.132Z,98691.56
2017-12-14T00:15:07.695Z,98676.88
2017-12-14T00:17:35.270Z,98656.59
2017-12-14T00:20:02.836Z,98646.88
2017-12-14T00:22:30.478Z,98630.97
2017-12-14T00:24:57.491Z,98627.81
2017-12-14T00:27:25.141Z,98619.05
2017-12-14T00:29:52.718Z,98607.22
2017-12-14T00:32:20.287Z,98599.50
2017-12-14T00:34:47.871Z,98579.49
2017-12-14T00:37:15.455Z,98590.55
2017-12-14T00:39:43.023Z,98602.64
2017-12-14T00:42:10.736Z,98592.47
2017-12-14T00:44:38.309Z,98580.33
2017-12-14T00:47:05.881Z,98562.82
2017-12-14T00:49:33.452Z,98564.81
2017-12-14T00:52:01.022Z,98551.25
2017-12-14T00:54:28.666Z,98542.95
2017-12-14T00:56:56.236Z,98536.73
2017-12-14T00:59:23.813Z,98540.89
2017-12-14T01:01:51.383Z,98524.38
2017-12-14T01:04:19.109Z,98515.42
2017-12-14T01:06:46.681Z,98510.40
2017-12-14T01:09:14.259Z,98501.95
2017-12-14T01:11:41.823Z,98501.68
2017-12-14T01:14:09.390Z,98511.73
2017-12-14T01:16:36.972Z,98491.11
2017-12-14T01:19:04.541Z,98494.70
2017-12-14T01:21:32.115Z,98484.23
2017-12-14T01:23:59.691Z,98491.06
2017-12-14T01:26:27.309Z,98470.58
2017-12-14T01:28:54.888Z,98470.63
2017-12-14T01:31:22.464Z,98468.77
2017-12-14T01:33:50.039Z,98457.94
2017-12-14T01:36:17.608Z,98463.33
2017-12-14T01:38:45.172Z,98464.58
2017-12-14T01:41:12.736Z,98462.70
2017-12-14T01:43:40.304Z,98459.88
2017-12-14T01:46:07.882Z,98454.48
2017-12-14T01:48:35.499Z,98448.76
2017-12-14T01:51:03.148Z,98446.36
2017-12-14T01:53:30.760Z,98445.49
2017-12-14T01:55:58.355Z,98437.23
2017-12-14T01:58:26.035Z,98439.20
2017-12-14T02:00:53.610Z,98439.02
2017-12-14T02:03:21.236Z,98434.38
2017-12-14T02:05:48.817Z,98431.95
2017-12-14T02:08:16.388Z,98434.31
2017-12-14T02:10:43.958Z,98414.66
2017-12-14T02:13:11.528Z,98414.56
2017-12-14T02:15:39.148Z,98407.98
2017-12-14T02:18:06.723Z,98424.70
2017-12-14T02:20:34.299Z,98419.34
2017-12-14T02:23:01.873Z,98420.66
2017-12-14T02:25:29.527Z,98421.63
2017-12-14T02:27:57.104Z,98419.05
2017-12-14T02:30:24.702Z,98410.40
2017-12-14T02:32:52.329Z,98396.55
2017-12-14T02:35:19.903Z,98404.06
2017-12-14T02:37:47.524Z,98395.49
2017-12-14T02:40:15.677Z,98392.55
2017-12-14T02:42:43.252Z,98382.10
2017-12-14T02:45:10.840Z,98385.25
2017-12-14T02:47:38.412Z,98365.16
2017-12-14T02:50:06.001Z,98358.38
2017-12-14T02:52:33.648Z,98369.27
2017-12-14T02:55:01.221Z,98344.09
2017-12-14T02:57:28.796Z,98343.41
2017-12-14T02:59:56.448Z,98364.97
2017-12-14T03:02:24.116Z,98364.42
2017-12-14T03:04:51.783Z,98345.66
2017-12-14T03:07:19.436Z,98346.89
2017-12-14T03:09:47.007Z,98351.14
2017-12-14T03:12:14.587Z,98354.42
2017-12-14T03:14:42.156Z,98354.54
2017-12-14T03:17:09.817Z,98343.55
2017-12-14T03:19:38.300Z,98341.98
2017-12-14T03:22:06.419Z,98349.54
2017-12-14T03:24:33.988Z,98352.91
2017-12-14T03:27:01.563Z,98356.86
2017-12-14T03:29:29.179Z,98352.80
2017-12-14T03:31:56.749Z,98352.01
2017-12-14T03:34:24.397Z,98358.22
2017-12-14T03:36:52.012Z,98352.73
2017-12-14T03:39:19.575Z,98350.86
2017-12-14T03:41:47.182Z,98354.44
2017-12-14T03:44:14.755Z,98352.16
2017-12-14T03:46:42.327Z,98351.20
2017-12-14T03:49:09.929Z,98361.77
2017-12-14T03:51:37.514Z,98368.86
2017-12-14T03:54:05.087Z,98369.29
2017-12-14T03:56:32.701Z,98369.87
2017-12-14T03:59:00.275Z,98379.70
2017-12-14T04:01:27.848Z,98386.20
2017-12-14T04:03:55.534Z,98381.89
2017-12-14T04:06:23.103Z,98378.14
2017-12-14T04:08:50.808Z,98371.73
2017-12-14T04:11:18.475Z,98382.00
2017-12-14T04:13:46.055Z,98387.53
2017-12-14T04:16:13.628Z,98387.28
2017-12-14T04:18:41.259Z,98391.89
2017-12-14T04:21:08.916Z,98394.58
2017-12-14T04:23:36.484Z,98395.02
2017-12-14T04:26:04.055Z,98392.51
2017-12-14T04:28:31.699Z,98392.09
2017-12-14T04:30:59.391Z,98395.13
2017-12-14T04:33:26.960Z,98397.56
2017-12-14T04:35:54.537Z,98395.78
2017-12-14T04:38:22.111Z,98400.91
2017-12-14T04:40:49.863Z,98392.31
2017-12-14T04:43:17.526Z,98401.94
2017-12-14T04:45:45.102Z,98398.65
2017-12-14T04:48:12.708Z,98396.83
2017-12-14T04:50:40.284Z,98398.92
2017-12-14T04:53:07.866Z,98398.77
2017-12-14T04:55:35.489Z,98398.67
2017-12-14T04:58:03.104Z,98398.33
2017-12-14T05:00:30.717Z,98407.02
2017-12-14T05:02:58.283Z,98405.25
2017-12-14T05:05:25.853Z,98410.59
2017-12-14T05:07:53.602Z,98420.39
2017-12-14T05:10:21.252Z,98411.77
2017-12-14T05:12:48.918Z,98412.50
2017-12-14T05:15:16.491Z,98405.07
2017-12-14T05:17:44.069Z,98403.72
2017-12-14T05:20:11.648Z,98407.41
2017-12-14T05:22:39.265Z,98407.59
2017-12-14T05:25:06.832Z,98420.17
2017-12-14T05:27:34.410Z,98416.14
2017-12-14T05:30:01.980Z,98408.27
2017-12-14T05:32:29.556Z,98414.09
2017-12-14T05:34:57.272Z,98405.78
2017-12-14T05:37:24.848Z,98415.63
2017-12-14T05:39:52.412Z,98408.37
2017-12-14T05:42:20.092Z,98414.48
2017-12-14T05:44:47.668Z,98408.37
2017-12-14T05:47:15.318Z,98414.36
2017-12-14T05:49:43.009Z,98417.42
2017-12-14T05:52:10.640Z,98417.49
2017-12-14T05:54:38.213Z,98419.55
2017-12-14T05:57:05.829Z,98424.14
2017-12-14T05:59:33.470Z,98435.05
2017-12-14T06:02:01.073Z,98439.63
2017-12-14T06:04:28.717Z,98440.28
2017-12-14T06:06:57.203Z,98443.45
2017-12-14T06:09:24.772Z,98447.85
2017-12-14T06:11:52.420Z,98455.50
2017-12-14T06:14:19.996Z,98458.55
2017-12-14T06:16:47.647Z,98463.31
2017-12-14T06:19:15.255Z,98466.89
2017-12-14T06:21:42.828Z,98471.45
2017-12-14T06:24:10.752Z,98469.77
2017-12-14T06:26:39.954Z,98481.52
2017-12-14T06:29:08.040Z,98473.80
2017-12-14T06:31:35.700Z,98481.83
2017-12-14T06:34:03.280Z,98486.13
2017-12-14T06:36:30.854Z,98468.42
2017-12-14T06:38:58.426Z,98456.53
2017-12-14T06:41:26.002Z,98469.66
2017-12-14T06:43:53.577Z,98473.33
2017-12-14T06:46:21.192Z,98468.75
2017-12-14T06:48:48.768Z,98463.89
2017-12-14T06:51:16.340Z,98466.61
2017-12-14T06:53:43.917Z,98475.17
2017-12-14T06:56:11.483Z,98478.82
2017-12-14T06:58:39.171Z,98477.31
2017-12-14T07:01:06.808Z,98483.36
2017-12-14T07:03:34.396Z,98484.80
2017-12-14T07:06:01.973Z,98484.61
2017-12-14T07:08:29.686Z,98482.22
2017-12-14T07:10:57.405Z,98485.85
2017-12-14T07:13:24.976Z,98474.48
2017-12-14T07:15:52.629Z,98469.42
2017-12-14T07:18:20.199Z,98460.36
2017-12-14T07:20:47.773Z,98459.87
2017-12-14T07:23:15.344Z,98462.12
2017-12-14T07:25:42.911Z,98456.20
2017-12-14T07:28:10.495Z,98455.93
2017-12-14T07:30:38.072Z,98459.34
2017-12-14T07:33:05.692Z,98449.77
2017-12-14T07:35:33.259Z,98456.70
2017-12-14T07:38:00.835Z,98470.98
2017-12-14T07:40:28.414Z,98468.90
2017-12-14T07:43:04.980Z,98472.84
2017-12-14T07:45:58.360Z,98477.83
2017-12-14T07:48:26.039Z,98466.00
2017-12-14T07:50:53.607Z,98458.08
2017-12-14T07:53:21.172Z,98445.13
2017-12-14T07:55:48.743Z,98454.51
2017-12-14T07:58:16.319Z,98458.62
2017-12-14T08:00:43.924Z,98453.69
2017-12-14T08:03:11.497Z,98446.80
2017-12-14T08:05:39.110Z,98460.09
2017-12-14T08:08:06.720Z,98465.73
2017-12-14T08:10:34.298Z,98465.92
2017-12-14T08:13:01.877Z,98467.38
2017-12-14T08:15:29.448Z,98479.16
2017-12-14T08:17:57.131Z,98480.66
2017-12-14T08:20:24.788Z,98479.03
2017-12-14T08:22:52.366Z,98481.17
2017-12-14T08:25:19.937Z,98479.13
2017-12-14T08:27:47.503Z,98488.69
2017-12-14T08:30:15.140Z,98481.44
2017-12-14T08:32:43.005Z,98479.42
2017-12-14T08:35:10.712Z,98480.25
2017-12-14T08:37:38.283Z,98475.36
2017-12-14T08:40:05.992Z,98472.38
2017-12-14T08:42:33.575Z,98471.25
2017-12-14T08:45:01.214Z,98470.27
2017-12-14T08:47:28.792Z,98470.22
2017-12-14T08:49:56.363Z,98478.55
2017-12-14T08:52:23.996Z,98476.82
2017-12-14T08:54:51.572Z,98480.95
2017-12-14T08:57:19.144Z,98479.98
2017-12-14T08:59:46.776Z,98482.93
2017-12-14T09:02:14.356Z,98481.17
2017-12-14T09:04:41.932Z,98485.08
2017-12-14T09:07:09.563Z,98487.53
2017-12-14T09:09:37.144Z,98484.38
2017-12-14T09:12:04.788Z,98489.75
2017-12-14T09:14:32.360Z,98479.23
2017-12-14T09:17:00.047Z,98491.12
2017-12-14T09:19:27.710Z,98493.35
2017-12-14T09:21:55.329Z,98495.71
2017-12-14T09:24:23.152Z,98493.67
2017-12-14T09:26:51.152Z,98491.77
2017-12-14T09:29:18.827Z,98505.22
2017-12-14T09:31:46.590Z,98502.54
2017-12-14T09:34:14.168Z,98505.25
2017-12-14T09:36:41.740Z,98512.30
2017-12-14T09:39:09.320Z,98506.16
2017-12-14T09:41:36.896Z,98500.00
2017-12-14T09:44:04.471Z,98509.08
2017-12-14T09:46:32.047Z,98513.16
2017-12-14T09:48:59.615Z,98517.72
2017-12-14T09:51:27.297Z,98519.17
2017-12-14T09:53:54.867Z,98524.02
2017-12-14T09:56:22.480Z,98523.56
2017-12-14T09:58:50.384Z,98526.22
2017-12-14T10:01:18.077Z,98529.31
2017-12-14T10:03:45.723Z,98529.53
2017-12-14T10:06:13.376Z,98539.89
2017-12-14T10:08:40.989Z,98534.96
2017-12-14T10:11:08.558Z,98547.12
2017-12-14T10:13:36.131Z,98546.50
2017-12-14T10:16:03.715Z,98551.61
2017-12-14T10:18:31.334Z,98554.63
2017-12-14T10:20:58.948Z,98558.77
2017-12-14T10:23:26.518Z,98559.55
2017-12-14T10:25:55.167Z,98560.02
2017-12-14T10:28:22.783Z,98576.63
2017-12-14T10:30:50.397Z,98580.33
2017-12-14T10:33:18.004Z,98587.21
2017-12-14T10:35:45.771Z,98584.69
2017-12-14T10:38:13.345Z,98591.13
2017-12-14T10:40:40.920Z,98590.25
2017-12-14T10:43:08.495Z,98586.60
2017-12-14T10:45:36.062Z,98586.81
2017-12-14T10:48:03.676Z,98604.83
2017-12-14T10:50:31.259Z,98603.50
2017-12-14T10:52:58.833Z,98605.82
2017-12-14T10:55:26.431Z,98615.91
2017-12-14T10:57:54.003Z,98612.48
2017-12-14T11:00:21.615Z,98620.98
2017-12-14T11:02:49.184Z,98623.74
2017-12-14T11:05:16.763Z,98628.42
2017-12-14T11:07:44.348Z,98633.48
2017-12-14T11:10:12.519Z,98637.14
2017-12-14T11:12:40.093Z,98641.97
2017-12-14T11:15:07.988Z,98645.37
2017-12-14T11:17:35.560Z,98649.97
2017-12-14T11:20:03.133Z,98653.05
2017-12-14T11:22:30.742Z,98667.27
2017-12-14T11:24:58.314Z,98658.89
2017-12-14T11:27:26.081Z,98665.53
2017-12-14T11:29:53.676Z,98661.53
2017-12-14T11:32:21.289Z,98670.48
2017-12-14T11:34:48.904Z,98667.95
2017-12-14T11:37:16.524Z,98678.11
2017-12-14T11:39:44.156Z,98680.03
2017-12-14T11:42:11.745Z,98682.16
2017-12-14T11:44:39.380Z,98688.57
2017-12-14T11:47:06.956Z,98694.81
2017-12-14T11:49:34.527Z,98691.56
2017-12-14T11:52:02.095Z,98696.73
2017-12-14T11:54:29.667Z,98697.23
2017-12-14T11:56:57.275Z,98693.62
2017-12-14T11:59:24.948Z,98704.02
2017-12-14T12:01:52.611Z,98702.62
2017-12-14T12:04:20.192Z,98713.70
2017-12-14T12:06:47.836Z,98715.20
2017-12-14T12:09:15.420Z,98718.52
2017-12-14T12:11:42.993Z,98720.35
2017-12-14T12:14:10.567Z,98719.06
2017-12-14T12:16:38.182Z,98734.03
2017-12-14T12:19:05.757Z,98728.69
2017-12-14T12:21:33.408Z,98731.97
2017-12-14T12:24:01.097Z,98748.70
2017-12-14T12:26:28.672Z,98746.32
2017-12-14T12:28:56.249Z,98763.16
2017-12-14T12:31:23.823Z,98760.44
2017-12-14T12:33:51.396Z,98769.45
2017-12-14T12:36:19.003Z,98777.45
2017-12-14T12:38:46.631Z,98770.97
2017-12-14T12:41:14.339Z,98782.86
2017-12-14T12:43:41.960Z,98787.66
2017-12-14T12:46:09.531Z,98775.36
2017-12-14T12:48:37.097Z,98789.30
2017-12-14T12:51:04.670Z,98799.88
2017-12-14T12:53:32.300Z,98802.25
2017-12-14T12:55:59.875Z,98802.94
2017-12-14T12:58:27.444Z,98805.44
2017-12-14T13:00:55.095Z,98817.41
2017-12-14T13:03:22.716Z,98825.81
2017-12-14T13:05:50.364Z,98816.34
2017-12-14T13:08:17.932Z,98827.12
2017-12-14T13:10:45.508Z,98831.64
2017-12-14T13:13:13.089Z,98827.72
2017-12-14T13:15:40.759Z,98830.35
2017-12-14T13:18:08.378Z,98830.73
2017-12-14T13:20:35.984Z,98845.06
2017-12-14T13:23:03.556Z,98846.08
2017-12-14T13:25:31.167Z,98855.34
2017-12-14T13:27:58.777Z,98837.02
2017-12-14T13:30:26.435Z,98843.85
2017-12-14T13:32:54.058Z,98852.45
2017-12-14T13:35:21.636Z,98858.09
2017-12-14T13:37:49.207Z,98851.81
2017-12-14T13:40:16.875Z,98855.43
2017-12-14T13:42:44.457Z,98846.81
2017-12-14T13:45:12.067Z,98857.92
2017-12-14T13:47:39.635Z,98853.39
2017-12-14T13:50:07.271Z,98859.68
2017-12-14T13:52:34.846Z,98857.83
2017-12-14T13:55:02.419Z,98858.94
2017-12-14T13:57:30.043Z,98856.30
2017-12-14T13:59:57.613Z,98862.08
2017-12-14T14:02:25.213Z,98864.72
2017-12-14T14:04:52.800Z,98853.02
2017-12-14T14:07:20.373Z,98863.94
2017-12-14T14:09:47.938Z,98865.55
2017-12-14T14:12:15.577Z,98863.30
2017-12-14T14:14:43.149Z,98856.39
2017-12-14T14:17:10.728Z,98862.81
2017-12-14T14:19:38.359Z,98860.14
2017-12-14T14:22:06.073Z,98856.01
2017-12-14T14:24:33.643Z,98859.19
2017-12-14T14:27:01.214Z,98857.53
2017-12-14T14:29:28.815Z,98847.62
2017-12-14T14:31:56.425Z,98845.16
2017-12-14T14:34:24.036Z,98853.62
2017-12-14T14:36:51.608Z,98851.81
2017-12-14T14:39:19.249Z,98847.64
2017-12-14T14:41:46.862Z,98849.71
2017-12-14T14:44:14.436Z,98858.41
2017-12-14T14:46:42.089Z,98856.77
2017-12-14T14:49:09.660Z,98853.05
2017-12-14T14:51:37.269Z,98854.62
2017-12-14T14:54:04.845Z,98861.10
2017-12-14T14:56:32.533Z,98863.13
2017-12-14T14:59:00.141Z,98859.89
2017-12-14T15:01:27.706Z,98855.45
2017-12-14T15:03:55.284Z,98858.45
2017-12-14T15:06:22.930Z,98860.03
2017-12-14T15:08:50.982Z,98861.09
2017-12-14T15:11:19.276Z,98869.39
2017-12-14T15:13:46.852Z,98864.77
2017-12-14T15:16:14.505Z,98864.94
2017-12-14T15:18:42.108Z,98858.59
2017-12-14T15:21:09.683Z,98868.47
2017-12-14T15:23:37.292Z,98867.86
2017-12-14T15:26:04.949Z,98867.77
2017-12-14T15:28:32.519Z,98863.25
2017-12-14T15:31:00.127Z,98861.38
2017-12-14T15:33:27.736Z,98863.53
2017-12-14T15:35:55.310Z,98863.80
2017-12-14T15:38:22.959Z,98853.58
2017-12-14T15:40:50.535Z,98849.81
2017-12-14T15:43:18.144Z,98858.75
2017-12-14T15:45:45.720Z,98860.19
2017-12-14T15:48:13.296Z,98858.89
2017-12-14T15:50:40.973Z,98858.08
2017-12-14T15:53:08.660Z,98870.02
2017-12-14T15:55:36.234Z,98858.53
2017-12-14T15:58:03.806Z,98853.05
2017-12-14T16:00:31.423Z,98854.19
2017-12-14T16:02:59.001Z,98846.27
2017-12-14T16:05:26.576Z,98848.58
2017-12-14T16:07:54.148Z,98846.27
2017-12-14T16:10:21.794Z,98844.15
2017-12-14T16:12:49.404Z,98844.30
2017-12-14T16:15:17.088Z,98833.62
2017-12-14T16:17:44.748Z,98829.68
2017-12-14T16:20:12.439Z,98829.86
2017-12-14T16:22:40.016Z,98832.22
2017-12-14T16:25:07.591Z,98825.88
2017-12-14T16:27:35.199Z,98817.41
2017-12-14T16:30:02.780Z,98817.59
2017-12-14T16:32:30.415Z,98817.06
2017-12-14T16:34:58.001Z,98814.50
2017-12-14T16:37:25.572Z,98812.73
2017-12-14T16:39:53.204Z,98814.73
2017-12-14T16:42:20.791Z,98809.92
2017-12-14T16:44:48.459Z,98808.96
2017-12-14T16:47:16.240Z,98810.84
2017-12-14T16:49:43.851Z,98806.88
2017-12-14T16:52:11.422Z,98806.09
2017-12-14T16:54:38.993Z,98812.83
2017-12-14T16:57:06.608Z,98810.55
2017-12-14T16:59:34.183Z,98811.34
2017-12-14T17:02:01.756Z,98816.06
2017-12-14T17:04:29.431Z,98810.99
2017-12-14T17:06:57.090Z,98809.98
2017-12-14T17:09:24.664Z,98810.78
2017-12-14T17:11:53.069Z,98812.67
2017-12-14T17:14:20.689Z,98806.77
2017-12-14T17:16:48.265Z,98816.44
2017-12-14T17:19:15.835Z,98803.67
2017-12-14T17:21:43.403Z,98811.35
2017-12-14T17:24:10.978Z,98801.50
2017-12-14T17:26:38.702Z,98798.63
2017-12-14T17:29:06.903Z,98802.34
2017-12-14T17:31:34.564Z,98798.08
2017-12-14T17:34:02.148Z,98788.87
2017-12-14T17:36:29.715Z,98783.23
2017-12-14T17:38:57.326Z,98786.42
2017-12-14T17:41:24.928Z,98798.39
2017-12-14T17:43:52.500Z,98801.03
2017-12-14T17:46:20.099Z,98804.95
2017-12-14T17:48:47.681Z,98807.55
2017-12-14T17:51:15.251Z,98802.27
2017-12-14T17:53:42.935Z,98808.32
2017-12-14T17:56:10.647Z,98802.77
2017-12-14T17:58:38.343Z,98807.11
2017-12-14T18:01:05.921Z,98827.09
2017-12-14T18:03:33.502Z,98824.64
2017-12-14T18:06:01.149Z,98826.11
2017-12-14T18:08:28.759Z,98827.47
2017-12-14T18:10:56.333Z,98824.36
2017-12-14T18:13:23.913Z,98829.69
2017-12-14T18:15:51.512Z,98832.45
2017-12-14T18:18:19.139Z,98832.46
2017-12-14T18:20:46.819Z,98825.52
2017-12-14T18:23:14.386Z,98836.54
2017-12-14T18:25:41.987Z,98876.92
2017-12-14T18:28:09.684Z,98892.36
2017-12-14T18:30:37.259Z,98882.51
2017-12-14T18:33:04.944Z,98885.85
2017-12-14T18:35:33.415Z,98896.11
2017-12-14T18:38:00.984Z,98898.61
2017-12-14T18:40:28.550Z,98893.03
2017-12-14T18:42:56.124Z,98884.46
2017-12-14T18:45:23.804Z,98885.75
2017-12-14T18:47:51.413Z,98884.67
2017-12-14T18:50:19.063Z,98883.24
2017-12-14T18:52:46.636Z,98889.30
2017-12-14T18:55:14.252Z,98889.74
2017-12-14T18:57:41.876Z,98880.72
2017-12-14T19:00:09.444Z,98881.73
2017-12-14T19:02:37.043Z,98882.22
2017-12-14T19:05:04.699Z,98878.77
2017-12-14T19:07:32.364Z,98877.17
2017-12-14T19:10:00.032Z,98874.94
2017-12-14T19:12:27.603Z,98875.00
2017-12-14T19:14:55.241Z,98883.04
2017-12-14T19:17:22.838Z,98877.80
2017-12-14T19:19:50.420Z,98878.20
2017-12-14T19:22:17.989Z,98875.80
2017-12-14T19:24:45.575Z,98878.55
2017-12-14T19:27:13.146Z,98879.49
2017-12-14T19:29:42.748Z,98876.77
2017-12-14T19:32:10.323Z,98876.17
2017-12-14T19:34:38.005Z,98886.21
2017-12-14T19:37:05.680Z,98887.02
2017-12-14T19:39:33.248Z,98892.78
2017-12-14T19:42:00.863Z,98894.81
2017-12-14T19:44:28.456Z,98897.91
2017-12-14T19:46:56.023Z,98894.75
2017-12-14T19:49:23.647Z,98895.70
2017-12-14T19:51:51.244Z,98900.84
2017-12-14T19:54:18.830Z,98901.67
2017-12-14T19:56:46.445Z,98895.80
2017-12-14T19:59:14.022Z,98896.71
2017-12-14T20:01:41.691Z,98897.59
2017-12-14T20:04:09.303Z,98897.92
2017-12-14T20:06:36.877Z,98896.30
2017-12-14T20:09:04.504Z,98906.43
2017-12-14T20:11:32.081Z,98894.89
2017-12-14T20:13:59.688Z,98902.72
2017-12-14T20:16:27.264Z,98896.84
2017-12-14T20:18:54.840Z,98903.27
2017-12-14T20:21:23.205Z,98900.89
2017-12-14T20:23:50.778Z,98913.22
2017-12-14T20:26:18.348Z,98916.68
2017-12-14T20:28:45.921Z,98914.67
2017-12-14T20:31:13.529Z,98912.91
2017-12-14T20:33:41.103Z,98906.84
2017-12-14T20:36:08.668Z,98902.47
2017-12-14T20:38:36.243Z,98903.64
2017-12-14T20:41:03.885Z,98901.44
2017-12-14T20:43:31.463Z,98899.94
2017-12-14T20:46:00.209Z,98900.65
2017-12-14T20:48:28.035Z,98899.44
2017-12-14T20:50:55.669Z,98895.81
2017-12-14T20:53:23.281Z,98889.16
2017-12-14T20:55:50.888Z,98893.86
2017-12-14T20:58:18.551Z,98893.48
2017-12-14T21:00:46.136Z,98894.39
2017-12-14T21:03:13.713Z,98895.89
2017-12-14T21:05:41.333Z,98888.18
2017-12-14T21:08:08.912Z,98882.44
2017-12-14T21:10:36.484Z,98883.44
2017-12-14T21:13:04.115Z,98882.19
2017-12-14T21:15:31.775Z,98886.11
2017-12-14T21:17:59.444Z,98888.69
2017-12-14T21:20:27.020Z,98889.48
2017-12-14T21:22:54.601Z,98886.77
2017-12-14T21:25:22.228Z,98885.64
2017-12-14T21:27:49.794Z,98884.31
2017-12-14T21:30:17.462Z,98891.59
2017-12-14T21:32:45.036Z,98886.39
2017-12-14T21:35:12.684Z,98884.92
2017-12-14T21:37:40.262Z,98891.46
2017-12-14T21:40:07.833Z,98889.66
2017-12-14T21:42:35.469Z,98888.53
2017-12-14T21:45:03.035Z,98888.93
2017-12-14T21:47:30.640Z,98887.09
2017-12-14T21:49:58.304Z,98888.98
2017-12-14T21:52:25.911Z,98890.76
2017-12-14T21:54:53.576Z,98883.64
2017-12-14T21:57:21.235Z,98894.39
2017-12-14T21:59:48.804Z,98895.75
2017-12-14T22:02:16.996Z,98897.95
2017-12-14T22:04:44.604Z,98900.70
2017-12-14T22:07:12.199Z,98898.07
2017-12-14T22:09:39.896Z,98894.80
2017-12-14T22:12:07.460Z,98892.90
2017-12-14T22:14:35.120Z,98890.82
2017-12-14T22:17:02.692Z,98898.00
2017-12-14T22:19:30.314Z,98888.70
2017-12-14T22:21:57.968Z,98889.05
2017-12-14T22:24:25.631Z,98896.27
2017-12-14T22:26:53.291Z,98896.28
2017-12-14T22:29:20.861Z,98900.53
2017-12-14T22:31:48.554Z,98892.58
2017-12-14T22:34:16.188Z,98894.44
2017-12-14T22:36:43.808Z,98897.72
2017-12-14T22:39:11.408Z,98897.31
2017-12-14T22:41:38.980Z,98896.75
2017-12-14T22:44:06.556Z,98901.17
2017-12-14T22:46:34.195Z,98908.92
2017-12-14T22:49:01.887Z,98903.92
2017-12-14T22:51:29.519Z,98905.30
2017-12-14T22:53:57.178Z,98899.23
2017-12-14T22:56:24.747Z,98901.41
2017-12-14T22:58:52.334Z,98903.87
2017-12-14T23:01:20.004Z,98905.67
2017-12-14T23:03:47.615Z,98904.36
2017-12-14T23:06:15.181Z,98902.41
2017-12-14T23:08:42.798Z,98903.21
2017-12-14T23:11:10.450Z,98903.42
2017-12-14T23:13:38.059Z,98906.56
2017-12-14T23:16:05.633Z,98910.27
2017-12-14T23:18:33.204Z,98919.41
2017-12-14T23:21:00.776Z,98924.68
2017-12-14T23:23:28.342Z,98925.05
2017-12-14T23:25:56.015Z,98923.80
2017-12-14T23:28:23.587Z,98925.89
2017-12-14T23:30:51.182Z,98925.41
2017-12-14T23:33:18.761Z,98927.53
2017-12-14T23:35:46.336Z,98927.36
2017-12-14T23:38:14.573Z,98928.82
2017-12-14T23:40:42.262Z,98922.90
2017-12-14T23:43:09.831Z,98914.47
2017-12-14T23:45:37.523Z,98917.33
2017-12-14T23:48:05.097Z,98920.39
2017-12-14T23:50:32.816Z,98922.79
2017-12-14T23:53:00.384Z,98922.97
2017-12-14T23:55:27.957Z,98920.31
2017-12-14T23:57:55.560Z,98916.70
